Lille-Lesquin Airport

Airport
ICAO code: 
LFQQ
IATA Code: 
LIL
Summary
ICAO Region: 
EUR
Territory: 
Location: 
, Nord-Pas-de-Calais
Serving: 
Lille
Elevation: 
157 ft
Coordinates: 
Aerial View: 
50° 33' 42.991" N, 3° 5' 21.998" E
Metar
Observation
LFQQ 020400Z AUTO 28010KT 9999 FEW026 BKN034 BKN047 04/02 Q1003 TEMPO BKN025CB
Station
Lille
Date/Time
2021-12-02 04:00:00
Wind direction
280°
Wind speed
10 kts
Lowest cloud amount
few clouds
Temperature
4°C
Dew point
2°C
Humidity
86%
QNH
1003 hPa
Weather condition
n/a

Runways

Designator Length Width Surface Rops
2/20 1580 30 ASP Yes/Yes
8/26 2825 45 ASP Yes/Yes
Airport map: 
Aerial View: 

SKYbrary Partners:

Safety knowledge contributed by: